ADDS METAR Data INFO
IDs: Format: Raw Decoded Include TAF

Data at: 2007 UTC 19 Oct 2017

KMGJ 191954Z AUTO 22012G21KT 10SM CLR 21/07 A3006 RMK AO2 SLP178 T02110072
KMGJ 191854Z AUTO 22011G20KT 10SM CLR 22/08 A3007 RMK AO2 SLP184 T02170078
KMGJ 191754Z AUTO 21013KT 10SM CLR 21/07 A3010 RMK AO2 SLP193 T02110067 10211 20050 58032
KMGJ 191654Z AUTO 23014G18KT 10SM CLR 21/07 A3014 RMK AO2 SLP208 T02060067
KMGJ 191554Z AUTO 20012KT 10SM CLR 19/08 A3017 RMK AO2 SLP216 T01890078
KMGJ 191454Z AUTO 23010KT 10SM CLR 17/09 A3020 RMK AO2 SLP226 T01670089 58009
KMGJ 191354Z AUTO 21006KT 10SM CLR 13/09 A3021 RMK AO2 SLP232 T01330094
KMGJ 191254Z AUTO 20003KT 7SM CLR 10/08 A3023 RMK AO2 SLP237 T01000083
KMGJ 191154Z AUTO 00000KT 7SM CLR 04/04 A3022 RMK AO2 SLP236 60000 T00440044 10078 20044 58003
KMGJ 191137Z AUTO 00000KT 4SM BR CLR 04/04 A3022 RMK AO2 T00440039
KMGJ 191124Z AUTO 00000KT 2SM BR CLR 04/04 A3022 RMK AO2 VIS 1V3 T00440039
KMGJ 191058Z AUTO 00000KT 3SM BR CLR 04/04 A3022 RMK AO2 T00440039
KMGJ 191054Z AUTO 18003KT 1 1/2SM BR CLR 05/04 A3023 RMK AO2 RAB0955E18 SLP236 P0000 T00500044
KMGJ 191049Z AUTO 17003KT 1 3/4SM BR CLR 04/04 A3023 RMK AO2 RAB0955E18 P0000
KMGJ 191042Z AUTO 17003KT 6SM BR CLR 05/04 A3023 RMK AO2 RAB0955E18 P0000 T00500044
KMGJ 191034Z AUTO 00000KT 2 1/2SM BR CLR 05/04 A3023 RMK AO2 RAB0955E18 P0000 T00500044
KMGJ 190954Z AUTO 19003KT 5SM BR CLR 05/05 A3024 RMK AO2 SLP239 T00500050
KMGJ 190920Z AUTO 00000KT 3SM BR CLR 05/04 A3023 RMK AO2 T00500044
KMGJ 190917Z AUTO 00000KT 1 1/4SM BR CLR 05/04 A3023 RMK AO2 VIS 1/2V5 T00500044
KMGJ 190909Z AUTO 00000KT 3/4SM BR CLR 06/05 A3023 RMK AO2 T00560050
KMGJ 190901Z AUTO 00000KT 1 1/4SM BR CLR 06/05 A3023 RMK AO2 T00560050
KMGJ 190854Z AUTO 00000KT 3/4SM BR CLR 06/06 A3023 RMK AO2 SLP238 T00560056 55004
KMGJ 190852Z AUTO 00000KT 3/4SM BR CLR 06/06 A3023 RMK AO2
KMGJ 190848Z AUTO 00000KT 1 3/4SM BR CLR 06/05 A3023 RMK AO2
KMGJ 190754Z AUTO 00000KT 4SM BR CLR 07/06 A3023 RMK AO2 SLP237 T00670061
KMGJ 190654Z AUTO 00000KT 10SM CLR 07/06 A3024 RMK AO2 SLP239 T00670061
KMGJ 190554Z AUTO 00000KT 10SM CLR 07/06 A3025 RMK AO2 RAB0457E15 SLP242 P0000 60000 T00720061 10117 20061 56006
KMGJ 190454Z AUTO 00000KT 10SM CLR 08/07 A3025 RMK AO2 SLP244 T00780072 402220022
KMGJ 190354Z AUTO 00000KT 10SM CLR 08/07 A3026 RMK AO2 SLP246 T00780072
KMGJ 190254Z AUTO 00000KT 9SM CLR 09/08 A3027 RMK AO2 SLP250 T00890078 50004
KMGJ 190154Z AUTO 00000KT 10SM CLR 09/08 A3027 RMK AO2 SLP251 T00890078
KMGJ 190054Z AUTO 00000KT 10SM CLR 10/09 A3026 RMK AO2 SLP249 T01000089
KMGJ 182354Z AUTO 00000KT 10SM CLR 12/09 A3025 RMK AO2 SLP247 T01170094 10222 20111 53011
KMGJ 182254Z AUTO 00000KT 10SM CLR 13/11 A3024 RMK AO2 SLP243 T01330106
KMGJ 182154Z AUTO 00000KT 10SM CLR 17/11 A3023 RMK AO2 SLP237 T01720106
KMGJ 182054Z AUTO 21006KT 10SM CLR 21/09 A3022 RMK AO2 SLP235 T02110089 56011
KMGJ 181954Z AUTO 23006KT 10SM CLR 22/09 A3023 RMK AO2 SLP238 T02170089
KMGJ 181854Z AUTO 00000KT 10SM CLR 22/08 A3024 RMK AO2 SLP241 T02170083
KMGJ 181754Z AUTO 22009KT 10SM CLR 21/09 A3025 RMK AO2 SLP246 T02110089 10217 20050 58016
KMGJ 181654Z AUTO 24005KT 10SM CLR 21/08 A3028 RMK AO2 SLP256 T02060083
KMGJ 181554Z AUTO 27007KT 10SM CLR 19/08 A3030 RMK AO2 SLP262 T01890078
KMGJ 181454Z AUTO 20006KT 10SM CLR 16/07 A3030 RMK AO2 SLP262 T01610072 50002
KMGJ 181354Z AUTO 20004KT 10SM CLR 13/06 A3031 RMK AO2 SLP266 T01330061
KMGJ 181254Z AUTO 21007KT 10SM CLR 09/05 A3031 RMK AO2 SLP267 T00940050
KMGJ 181154Z AUTO 23006KT 10SM CLR 05/03 A3030 RMK AO2 SLP262 T00500028 10050 20022 51011
KMGJ 181054Z AUTO 22004KT 10SM CLR 03/02 A3030 RMK AO2 SLP262 T00330017
KMGJ 180954Z AUTO 22004KT 10SM CLR 02/02 A3028 RMK AO2 SLP256 T00220017
KMGJ 180854Z AUTO 00000KT 10SM CLR 03/02 A3027 RMK AO2 SLP249 T00330022 55000